createdAt,value
2023-02-13T00:00:23.278Z,5.84
2023-02-13T00:01:23.261Z,5.86
2023-02-13T00:02:23.296Z,5.83
2023-02-13T00:03:23.280Z,5.83
2023-02-13T00:04:24.213Z,5.83
2023-02-13T00:05:23.215Z,5.80
2023-02-13T00:06:23.205Z,5.79
2023-02-13T00:07:23.198Z,5.75
2023-02-13T00:08:23.193Z,5.76
2023-02-13T00:09:23.889Z,5.75
2023-02-13T00:10:23.179Z,5.73
2023-02-13T00:11:23.180Z,5.73
2023-02-13T00:12:23.144Z,5.72
2023-02-13T00:13:23.145Z,5.73
2023-02-13T00:14:23.123Z,5.73
2023-02-13T00:15:23.128Z,5.73
2023-02-13T00:16:23.110Z,5.72
2023-02-13T00:17:23.094Z,5.69
2023-02-13T00:18:23.082Z,5.69
2023-02-13T00:19:23.076Z,5.69
2023-02-13T00:20:23.064Z,5.66
2023-02-13T00:21:23.059Z,5.65
2023-02-13T00:22:23.039Z,5.64
2023-02-13T00:23:23.036Z,5.62
2023-02-13T00:24:23.019Z,5.59
2023-02-13T00:25:23.021Z,5.61
2023-02-13T00:26:23.000Z,5.56
2023-02-13T00:27:22.998Z,5.56
2023-02-13T00:28:23.025Z,5.56
2023-02-13T00:29:22.988Z,5.53
2023-02-13T00:30:23.284Z,5.54
2023-02-13T00:31:23.028Z,5.53
2023-02-13T00:32:22.938Z,5.56
2023-02-13T00:33:22.930Z,5.56
2023-02-13T00:34:22.919Z,5.56
2023-02-13T00:35:23.305Z,5.56
2023-02-13T00:36:22.905Z,5.56
2023-02-13T00:37:22.892Z,5.57
2023-02-13T00:38:22.875Z,5.54
2023-02-13T00:39:22.869Z,5.53
2023-02-13T00:40:23.184Z,5.54
2023-02-13T00:41:22.845Z,5.54
2023-02-13T00:42:22.831Z,5.53
2023-02-13T00:43:22.820Z,5.51
2023-02-13T00:44:22.859Z,5.53
2023-02-13T00:45:22.989Z,5.51
2023-02-13T00:46:22.838Z,5.47
2023-02-13T00:47:22.779Z,5.44
2023-02-13T00:48:22.760Z,5.44
2023-02-13T00:49:22.768Z,5.43
2023-02-13T00:50:22.918Z,5.41
2023-02-13T00:51:22.742Z,5.39
2023-02-13T00:52:22.721Z,5.39
2023-02-13T00:53:22.717Z,5.43
2023-02-13T00:54:22.698Z,5.39
2023-02-13T00:55:23.064Z,5.39
2023-02-13T00:56:22.685Z,5.43
2023-02-13T00:57:22.673Z,5.41
2023-02-13T00:58:22.738Z,5.41
2023-02-13T00:59:22.653Z,5.43
2023-02-13T01:00:23.010Z,5.43
2023-02-13T01:01:22.657Z,5.44
2023-02-13T01:02:22.624Z,5.44
2023-02-13T01:03:22.617Z,5.46
2023-02-13T01:04:22.602Z,5.46
2023-02-13T01:05:22.940Z,5.43
2023-02-13T01:06:22.590Z,5.44
2023-02-13T01:07:22.578Z,5.41
2023-02-13T01:08:22.570Z,5.38
2023-02-13T01:09:22.561Z,5.38
2023-02-13T01:10:22.550Z,5.36
2023-02-13T01:11:22.533Z,5.35
2023-02-13T01:12:22.529Z,5.38
2023-02-13T01:13:22.515Z,5.38
2023-02-13T01:14:22.506Z,5.36
2023-02-13T01:15:22.510Z,5.39
2023-02-13T01:16:22.534Z,5.36
2023-02-13T01:17:22.484Z,5.39
2023-02-13T01:18:22.468Z,5.41
2023-02-13T01:19:22.459Z,5.43
2023-02-13T01:20:22.455Z,5.38
2023-02-13T01:21:22.443Z,5.41
2023-02-13T01:22:22.416Z,5.38
2023-02-13T01:23:22.423Z,5.38
2023-02-13T01:24:22.400Z,5.39
2023-02-13T01:25:22.665Z,5.38
2023-02-13T01:26:22.411Z,5.36
2023-02-13T01:27:22.368Z,5.36
2023-02-13T01:28:22.412Z,5.33
2023-02-13T01:29:22.350Z,5.33
2023-02-13T01:30:22.356Z,5.32
2023-02-13T01:31:22.471Z,5.32
2023-02-13T01:32:22.326Z,5.32
2023-02-13T01:33:22.317Z,5.32
2023-02-13T01:34:22.311Z,5.30
2023-02-13T01:35:22.297Z,5.35
2023-02-13T01:36:22.281Z,5.35
2023-02-13T01:37:22.270Z,5.36
2023-02-13T01:38:22.262Z,5.38
2023-02-13T01:39:22.254Z,5.39
2023-02-13T01:40:22.253Z,5.43
2023-02-13T01:41:22.233Z,5.44
2023-02-13T01:42:22.218Z,5.46
2023-02-13T01:43:22.196Z,5.47
2023-02-13T01:44:22.193Z,5.48
2023-02-13T01:45:22.181Z,5.51
2023-02-13T01:46:22.256Z,5.51
2023-02-13T01:47:22.159Z,5.50
2023-02-13T01:48:22.156Z,5.51
2023-02-13T01:49:22.164Z,5.54
2023-02-13T01:50:22.138Z,5.53
2023-02-13T01:51:22.121Z,5.54
2023-02-13T01:52:22.114Z,5.56
2023-02-13T01:53:22.111Z,5.57
2023-02-13T01:54:22.090Z,5.59
2023-02-13T01:55:22.086Z,5.57
2023-02-13T01:56:22.074Z,5.57
2023-02-13T01:57:22.076Z,5.62
2023-02-13T01:58:22.052Z,5.61
2023-02-13T01:59:22.029Z,5.61
2023-02-13T02:00:22.034Z,5.62
2023-02-13T02:01:22.029Z,5.62
2023-02-13T02:02:22.067Z,5.62
2023-02-13T02:03:21.990Z,5.64
2023-02-13T02:04:21.985Z,5.64
2023-02-13T02:05:21.996Z,5.64
2023-02-13T02:06:21.970Z,5.66
2023-02-13T02:07:21.959Z,5.64
2023-02-13T02:08:21.950Z,5.65
2023-02-13T02:09:21.938Z,5.64
2023-02-13T02:10:21.928Z,5.62
2023-02-13T02:11:21.917Z,5.65
2023-02-13T02:12:21.912Z,5.64
2023-02-13T02:13:21.891Z,5.65
2023-02-13T02:14:21.880Z,5.65
2023-02-13T02:15:21.876Z,5.62
2023-02-13T02:16:21.905Z,5.64
2023-02-13T02:17:21.847Z,5.65
2023-02-13T02:18:21.854Z,5.62
2023-02-13T02:19:21.831Z,5.64
2023-02-13T02:20:21.837Z,5.64
2023-02-13T02:21:21.814Z,5.64
2023-02-13T02:22:21.808Z,5.64
2023-02-13T02:23:21.786Z,5.65
2023-02-13T02:24:21.783Z,5.65
2023-02-13T02:25:21.797Z,5.64
2023-02-13T02:26:21.763Z,5.62
2023-02-13T02:27:21.754Z,5.62
2023-02-13T02:28:21.805Z,5.61
2023-02-13T02:29:21.737Z,5.62
2023-02-13T02:30:21.750Z,5.62
2023-02-13T02:31:21.753Z,5.62
2023-02-13T02:32:21.710Z,5.57
2023-02-13T02:33:21.691Z,5.61
2023-02-13T02:34:21.677Z,5.54
2023-02-13T02:35:21.691Z,5.54
2023-02-13T02:36:21.667Z,5.57
2023-02-13T02:37:21.658Z,5.53
2023-02-13T02:38:21.641Z,5.48
2023-02-13T02:39:21.632Z,5.47
2023-02-13T02:40:21.628Z,5.46
2023-02-13T02:41:21.610Z,5.46
2023-02-13T02:42:21.596Z,5.47
2023-02-13T02:43:21.591Z,5.44
2023-02-13T02:44:21.580Z,5.44
2023-02-13T02:45:21.602Z,5.41
2023-02-13T02:46:21.600Z,5.38
2023-02-13T02:47:21.549Z,5.39
2023-02-13T02:48:21.535Z,5.38
2023-02-13T02:49:21.544Z,5.41
2023-02-13T02:50:21.511Z,5.41
2023-02-13T02:51:21.507Z,5.39
2023-02-13T02:52:21.497Z,5.39
2023-02-13T02:53:21.485Z,5.39
2023-02-13T02:54:21.479Z,5.36
2023-02-13T02:55:22.175Z,5.38
2023-02-13T02:56:21.449Z,5.38
2023-02-13T02:57:21.440Z,5.38
2023-02-13T02:58:21.441Z,5.38
2023-02-13T02:59:21.428Z,5.38
2023-02-13T03:00:21.691Z,5.36
2023-02-13T03:01:21.447Z,5.39
2023-02-13T03:02:21.383Z,5.38
2023-02-13T03:03:21.376Z,5.39
2023-02-13T03:04:21.437Z,5.39
2023-02-13T03:05:22.176Z,5.39
2023-02-13T03:06:21.353Z,5.41
2023-02-13T03:07:21.333Z,5.39
2023-02-13T03:08:21.324Z,5.39
2023-02-13T03:09:21.331Z,5.38
2023-02-13T03:10:21.720Z,5.38
2023-02-13T03:11:21.296Z,5.36
2023-02-13T03:12:21.285Z,5.38
2023-02-13T03:13:21.280Z,5.33
2023-02-13T03:14:21.271Z,5.33
2023-02-13T03:15:22.100Z,5.35
2023-02-13T03:16:21.299Z,5.32
2023-02-13T03:17:21.232Z,5.30
2023-02-13T03:18:21.216Z,5.30
2023-02-13T03:19:21.210Z,5.28
2023-02-13T03:20:21.543Z,5.28
2023-02-13T03:21:21.192Z,5.26
2023-02-13T03:22:21.175Z,5.26
2023-02-13T03:23:21.170Z,5.26
2023-02-13T03:24:21.164Z,5.28
2023-02-13T03:25:21.893Z,5.26
2023-02-13T03:26:21.143Z,5.26
2023-02-13T03:27:21.138Z,5.25
2023-02-13T03:28:21.158Z,5.23
2023-02-13T03:29:21.113Z,5.21
2023-02-13T03:30:21.100Z,5.23
2023-02-13T03:31:21.175Z,5.20
2023-02-13T03:32:21.087Z,5.18
2023-02-13T03:33:21.080Z,5.20
2023-02-13T03:34:21.067Z,5.18
2023-02-13T03:35:21.055Z,5.18
2023-02-13T03:36:21.059Z,5.18
2023-02-13T03:37:21.031Z,5.17
2023-02-13T03:38:21.013Z,5.17
2023-02-13T03:39:21.006Z,5.18
2023-02-13T03:40:21.011Z,5.18
2023-02-13T03:41:20.999Z,5.18
2023-02-13T03:42:20.972Z,5.17
2023-02-13T03:43:20.980Z,5.18
2023-02-13T03:44:20.960Z,5.21
2023-02-13T03:45:20.955Z,5.20
2023-02-13T03:46:20.934Z,5.20
2023-02-13T03:47:20.937Z,5.21
2023-02-13T03:48:20.913Z,5.20
2023-02-13T03:49:20.913Z,5.21
2023-02-13T03:50:20.894Z,5.20
2023-02-13T03:51:20.899Z,5.21
2023-02-13T03:52:20.871Z,5.18
2023-02-13T03:53:20.876Z,5.21
2023-02-13T03:54:20.873Z,5.18
2023-02-13T03:55:20.841Z,5.15
2023-02-13T03:56:20.843Z,5.15
2023-02-13T03:57:20.824Z,5.14
2023-02-13T03:58:20.848Z,5.17
2023-02-13T03:59:20.801Z,5.15
2023-02-13T04:00:20.790Z,5.14
2023-02-13T04:01:20.831Z,5.11
2023-02-13T04:02:20.804Z,5.12
2023-02-13T04:03:20.770Z,5.12
2023-02-13T04:04:20.749Z,5.12
2023-02-13T04:05:20.745Z,5.12
2023-02-13T04:06:20.739Z,5.12
2023-02-13T04:07:20.721Z,5.11
2023-02-13T04:08:20.719Z,5.11
2023-02-13T04:09:20.719Z,5.10
2023-02-13T04:10:20.685Z,5.08
2023-02-13T04:11:20.686Z,5.08
2023-02-13T04:12:20.676Z,5.08
2023-02-13T04:13:20.661Z,5.08
2023-02-13T04:14:20.653Z,5.05
2023-02-13T04:15:20.639Z,5.10
2023-02-13T04:16:20.659Z,5.10
2023-02-13T04:17:20.627Z,5.07
2023-02-13T04:18:20.625Z,5.07
2023-02-13T04:19:20.597Z,5.05
2023-02-13T04:20:20.592Z,5.07
2023-02-13T04:21:20.596Z,5.08
2023-02-13T04:22:20.569Z,5.08
2023-02-13T04:23:20.571Z,5.04
2023-02-13T04:24:20.543Z,5.04
2023-02-13T04:25:20.559Z,5.05
2023-02-13T04:26:20.526Z,5.04
2023-02-13T04:27:20.516Z,5.04
2023-02-13T04:28:20.530Z,5.05
2023-02-13T04:29:20.512Z,5.00
2023-02-13T04:30:20.489Z,5.05
2023-02-13T04:31:20.633Z,5.04
2023-02-13T04:32:20.474Z,5.04
2023-02-13T04:33:20.457Z,5.05
2023-02-13T04:34:20.447Z,5.04
2023-02-13T04:35:20.440Z,5.02
2023-02-13T04:36:20.433Z,5.04
2023-02-13T04:37:20.423Z,5.04
2023-02-13T04:38:20.419Z,5.05
2023-02-13T04:39:20.411Z,5.02
2023-02-13T04:40:20.379Z,4.99
2023-02-13T04:41:20.379Z,5.02
2023-02-13T04:42:20.362Z,5.00
2023-02-13T04:43:20.360Z,4.96
2023-02-13T04:44:20.341Z,4.99
2023-02-13T04:45:20.336Z,4.99
2023-02-13T04:46:20.325Z,4.97
2023-02-13T04:47:20.333Z,4.99
2023-02-13T04:48:20.301Z,4.97
2023-02-13T04:49:20.295Z,4.97
2023-02-13T04:50:20.280Z,5.00
2023-02-13T04:51:20.284Z,5.00
2023-02-13T04:52:20.278Z,4.97
2023-02-13T04:53:20.257Z,4.99
2023-02-13T04:54:20.242Z,5.02
2023-02-13T04:55:20.239Z,5.02
2023-02-13T04:56:20.233Z,5.00
2023-02-13T04:57:20.218Z,4.99
2023-02-13T04:58:20.206Z,4.99
2023-02-13T04:59:20.209Z,4.97
2023-02-13T05:00:20.180Z,4.97
2023-02-13T05:01:20.220Z,4.94
2023-02-13T05:02:20.161Z,4.93
2023-02-13T05:03:20.115Z,4.96
2023-02-13T05:04:20.110Z,4.96
2023-02-13T05:05:20.093Z,4.96
2023-02-13T05:06:20.072Z,4.93
2023-02-13T05:07:20.061Z,4.96
2023-02-13T05:08:20.044Z,4.94
2023-02-13T05:09:20.031Z,4.93
2023-02-13T05:10:20.024Z,4.93
2023-02-13T05:11:20.032Z,4.93
2023-02-13T05:12:20.062Z,4.92
2023-02-13T05:13:20.005Z,4.92
2023-02-13T05:14:19.998Z,4.92
2023-02-13T05:15:19.972Z,4.92
2023-02-13T05:16:20.068Z,4.94
2023-02-13T05:17:19.951Z,4.92
2023-02-13T05:18:19.940Z,4.94
2023-02-13T05:19:19.951Z,4.96
2023-02-13T05:20:19.920Z,4.94
2023-02-13T05:21:19.923Z,4.96
2023-02-13T05:22:19.895Z,4.97
2023-02-13T05:23:19.898Z,4.96
2023-02-13T05:24:20.716Z,4.96
2023-02-13T05:25:19.897Z,4.94
2023-02-13T05:26:19.859Z,4.97
2023-02-13T05:27:19.882Z,4.94
2023-02-13T05:28:19.932Z,4.94
2023-02-13T05:29:19.836Z,4.94
2023-02-13T05:30:19.814Z,4.94
2023-02-13T05:31:19.996Z,4.94
2023-02-13T05:32:19.876Z,4.94
2023-02-13T05:33:19.847Z,4.94
2023-02-13T05:34:19.835Z,4.94
2023-02-13T05:35:19.822Z,4.96
2023-02-13T05:36:19.864Z,4.94
2023-02-13T05:37:19.808Z,4.94
2023-02-13T05:38:19.803Z,4.94
2023-02-13T05:39:19.782Z,4.94
2023-02-13T05:40:21.307Z,4.92
2023-02-13T05:41:19.784Z,4.94
2023-02-13T05:42:19.752Z,4.97
2023-02-13T05:43:19.751Z,4.94
2023-02-13T05:44:19.731Z,4.94
2023-02-13T05:45:19.731Z,4.96
2023-02-13T05:46:19.789Z,4.96
2023-02-13T05:47:19.711Z,4.96
2023-02-13T05:48:19.691Z,4.93
2023-02-13T05:49:19.719Z,4.93
2023-02-13T05:50:19.679Z,4.92
2023-02-13T05:51:20.036Z,4.93
2023-02-13T05:52:19.750Z,4.93
2023-02-13T05:53:19.662Z,4.90
2023-02-13T05:54:19.635Z,4.93
2023-02-13T05:55:19.620Z,4.92
2023-02-13T05:56:19.963Z,4.93
2023-02-13T05:57:19.604Z,4.93
2023-02-13T05:58:19.591Z,4.93
2023-02-13T05:59:19.578Z,4.92
2023-02-13T06:00:19.583Z,4.94
2023-02-13T06:01:19.559Z,4.92
2023-02-13T06:02:19.579Z,4.92
2023-02-13T06:03:19.569Z,4.93
2023-02-13T06:04:19.633Z,4.93
2023-02-13T06:05:19.466Z,4.93
2023-02-13T06:06:19.511Z,4.90
2023-02-13T06:07:19.508Z,4.94
2023-02-13T06:08:19.482Z,4.93
2023-02-13T06:09:19.438Z,4.93
2023-02-13T06:10:19.412Z,4.93
2023-02-13T06:11:19.404Z,4.96
2023-02-13T06:12:19.390Z,4.94
2023-02-13T06:13:19.382Z,4.94
2023-02-13T06:14:19.366Z,4.96
2023-02-13T06:15:19.361Z,4.94
2023-02-13T06:16:19.394Z,4.96
2023-02-13T06:17:19.346Z,4.96
2023-02-13T06:18:19.333Z,4.96
2023-02-13T06:19:19.378Z,4.94
2023-02-13T06:20:19.366Z,4.97
2023-02-13T06:21:19.351Z,4.97
2023-02-13T06:22:19.323Z,4.97
2023-02-13T06:23:19.291Z,4.97
2023-02-13T06:24:19.273Z,4.97
2023-02-13T06:25:19.262Z,4.97
2023-02-13T06:26:19.247Z,4.99
2023-02-13T06:27:19.241Z,5.00
2023-02-13T06:28:19.306Z,5.00
2023-02-13T06:29:19.271Z,5.02
2023-02-13T06:30:19.215Z,4.99
2023-02-13T06:31:19.285Z,4.99
2023-02-13T06:32:19.187Z,4.99
2023-02-13T06:33:19.181Z,4.99
2023-02-13T06:34:19.171Z,4.99
2023-02-13T06:35:19.168Z,4.99
2023-02-13T06:36:19.137Z,4.97
2023-02-13T06:37:19.139Z,5.00
2023-02-13T06:38:19.127Z,4.99
2023-02-13T06:39:19.121Z,5.00
2023-02-13T06:40:19.103Z,5.00
2023-02-13T06:41:19.114Z,5.02
2023-02-13T06:42:19.106Z,5.02
2023-02-13T06:43:19.086Z,5.04
2023-02-13T06:44:19.061Z,5.02
2023-02-13T06:45:19.063Z,5.00
2023-02-13T06:46:19.068Z,5.05
2023-02-13T06:47:19.043Z,5.04
2023-02-13T06:48:19.043Z,5.02
2023-02-13T06:49:19.031Z,5.00
2023-02-13T06:50:19.012Z,5.02
2023-02-13T06:51:19.004Z,5.02
2023-02-13T06:52:18.988Z,5.02
2023-02-13T06:53:18.969Z,5.00
2023-02-13T06:54:18.984Z,5.02
2023-02-13T06:55:18.999Z,4.99
2023-02-13T06:56:18.952Z,5.02
2023-02-13T06:57:18.960Z,5.02
2023-02-13T06:58:18.932Z,5.02
2023-02-13T06:59:18.918Z,5.05
2023-02-13T07:00:18.921Z,4.99
2023-02-13T07:01:18.967Z,5.02
2023-02-13T07:02:18.904Z,4.99
2023-02-13T07:03:18.883Z,4.99
2023-02-13T07:04:18.860Z,4.99
2023-02-13T07:05:18.853Z,5.02
2023-02-13T07:06:18.845Z,5.02
2023-02-13T07:07:18.834Z,5.02
2023-02-13T07:08:18.842Z,5.02
2023-02-13T07:09:18.808Z,5.00
2023-02-13T07:10:18.814Z,5.04
2023-02-13T07:11:18.799Z,5.00
2023-02-13T07:12:18.804Z,4.99
2023-02-13T07:13:18.772Z,5.02
2023-02-13T07:14:18.760Z,5.02
2023-02-13T07:15:18.742Z,5.04
2023-02-13T07:16:18.834Z,5.02
2023-02-13T07:17:18.734Z,5.00
2023-02-13T07:18:18.729Z,5.04
2023-02-13T07:19:18.704Z,5.02
2023-02-13T07:20:18.697Z,5.02
2023-02-13T07:21:18.689Z,5.02
2023-02-13T07:22:18.679Z,5.02
2023-02-13T07:23:18.676Z,5.02
2023-02-13T07:24:18.666Z,5.08
2023-02-13T07:25:18.641Z,5.05
2023-02-13T07:26:18.648Z,5.05
2023-02-13T07:27:18.634Z,5.05
2023-02-13T07:28:18.642Z,5.05
2023-02-13T07:29:18.608Z,5.07
2023-02-13T07:30:18.600Z,5.10
2023-02-13T07:31:18.685Z,5.08
2023-02-13T07:32:18.582Z,5.10
2023-02-13T07:33:18.569Z,5.10
2023-02-13T07:34:18.566Z,5.08
2023-02-13T07:35:18.538Z,5.10
2023-02-13T07:36:18.674Z,5.10
2023-02-13T07:37:18.555Z,5.10
2023-02-13T07:38:18.527Z,5.12
2023-02-13T07:39:18.499Z,5.12
2023-02-13T07:40:18.502Z,5.12
2023-02-13T07:41:18.483Z,5.12
2023-02-13T07:42:18.478Z,5.12
2023-02-13T07:43:18.472Z,5.12
2023-02-13T07:44:18.455Z,5.14
2023-02-13T07:45:18.449Z,5.14
2023-02-13T07:46:18.461Z,5.12
2023-02-13T07:47:20.190Z,5.12
2023-02-13T07:48:18.420Z,5.12
2023-02-13T07:49:18.400Z,5.14
2023-02-13T07:50:18.399Z,5.15
2023-02-13T07:51:18.386Z,5.17
2023-02-13T07:52:18.383Z,5.17
2023-02-13T07:53:18.363Z,5.17
2023-02-13T07:54:18.356Z,5.17
2023-02-13T07:55:18.346Z,5.17
2023-02-13T07:56:18.341Z,5.17
2023-02-13T07:57:18.333Z,5.17
2023-02-13T07:58:18.316Z,5.18
2023-02-13T07:59:18.299Z,5.17
2023-02-13T08:00:18.296Z,5.18
2023-02-13T08:01:18.279Z,5.20
2023-02-13T08:02:18.283Z,5.18
2023-02-13T08:03:18.267Z,5.20
2023-02-13T08:04:18.254Z,5.18
2023-02-13T08:05:18.243Z,5.18
2023-02-13T08:06:18.245Z,5.20
2023-02-13T08:07:18.239Z,5.20
2023-02-13T08:08:18.213Z,5.20
2023-02-13T08:09:18.199Z,5.20
2023-02-13T08:10:18.202Z,5.20
2023-02-13T08:11:18.181Z,5.23
2023-02-13T08:12:18.185Z,5.25
2023-02-13T08:13:18.178Z,5.23
2023-02-13T08:14:18.161Z,5.21
2023-02-13T08:15:18.145Z,5.23
2023-02-13T08:16:18.158Z,5.26
2023-02-13T08:17:18.138Z,5.25
2023-02-13T08:18:19.906Z,5.28
2023-02-13T08:19:18.106Z,5.26
2023-02-13T08:20:18.098Z,5.29
2023-02-13T08:21:18.074Z,5.29
2023-02-13T08:22:18.076Z,5.30
2023-02-13T08:23:18.127Z,5.33
2023-02-13T08:24:18.063Z,5.30
2023-02-13T08:25:18.045Z,5.32
2023-02-13T08:26:18.022Z,5.33
2023-02-13T08:27:18.024Z,5.35
2023-02-13T08:28:18.077Z,5.36
2023-02-13T08:29:17.999Z,5.39
2023-02-13T08:30:18.003Z,5.39
2023-02-13T08:31:18.082Z,5.44
2023-02-13T08:32:18.075Z,5.46
2023-02-13T08:33:17.959Z,5.50
2023-02-13T08:34:17.939Z,5.51
2023-02-13T08:35:17.925Z,5.53
2023-02-13T08:36:17.927Z,5.54
2023-02-13T08:37:18.662Z,5.57
2023-02-13T08:38:17.899Z,5.59
2023-02-13T08:39:17.886Z,5.64
2023-02-13T08:40:17.880Z,5.65
2023-02-13T08:42:18.052Z,5.69
2023-02-13T08:43:17.842Z,5.72
2023-02-13T08:44:18.011Z,5.75
2023-02-13T08:45:17.821Z,5.76
2023-02-13T08:46:17.869Z,5.80
2023-02-13T08:47:18.677Z,5.82
2023-02-13T08:48:17.850Z,5.84
2023-02-13T08:49:17.789Z,5.83
2023-02-13T08:50:17.780Z,5.84
2023-02-13T08:51:17.760Z,5.89
2023-02-13T08:52:18.091Z,5.90
2023-02-13T08:53:17.742Z,5.90
2023-02-13T08:54:17.745Z,5.93
2023-02-13T08:55:17.730Z,5.98
2023-02-13T08:56:17.721Z,5.99
2023-02-13T08:57:18.009Z,6.01
2023-02-13T08:58:17.717Z,5.99
2023-02-13T08:59:17.678Z,6.01
2023-02-13T09:00:17.672Z,6.02
2023-02-13T09:01:17.749Z,6.04
2023-02-13T09:02:18.057Z,6.05
2023-02-13T09:03:17.692Z,6.08
2023-02-13T09:04:17.629Z,6.07
2023-02-13T09:05:17.636Z,6.11
2023-02-13T09:06:17.611Z,6.12
2023-02-13T09:07:17.624Z,6.14
2023-02-13T09:08:18.812Z,6.16
2023-02-13T09:09:17.584Z,6.20
2023-02-13T09:10:17.625Z,6.22
2023-02-13T09:11:17.573Z,6.24
2023-02-13T09:12:17.568Z,6.24
2023-02-13T09:13:17.544Z,6.24
2023-02-13T09:14:17.525Z,6.28
2023-02-13T09:15:17.515Z,6.26
2023-02-13T09:16:17.594Z,6.28
2023-02-13T09:17:17.503Z,6.26
2023-02-13T09:18:17.504Z,6.27
2023-02-13T09:19:17.486Z,6.28
2023-02-13T09:20:17.474Z,6.31
2023-02-13T09:21:17.466Z,6.33
2023-02-13T09:22:17.452Z,6.36
2023-02-13T09:23:17.434Z,6.42
2023-02-13T09:24:17.432Z,6.44
2023-02-13T09:25:17.418Z,6.48
2023-02-13T09:26:19.586Z,6.49
2023-02-13T09:27:17.395Z,6.49
2023-02-13T09:28:17.442Z,6.51
2023-02-13T09:29:17.373Z,6.52
2023-02-13T09:30:17.373Z,6.52
2023-02-13T09:31:17.466Z,6.54
2023-02-13T09:32:17.429Z,6.51
2023-02-13T09:33:17.341Z,6.51
2023-02-13T09:34:17.331Z,6.54
2023-02-13T09:35:17.316Z,6.59
2023-02-13T09:36:17.311Z,6.59
2023-02-13T09:37:17.289Z,6.63
2023-02-13T09:38:17.295Z,6.60
2023-02-13T09:39:17.272Z,6.59
2023-02-13T09:40:17.261Z,6.60
2023-02-13T09:41:17.547Z,6.63
2023-02-13T09:42:17.246Z,6.72
2023-02-13T09:43:17.249Z,6.85
2023-02-13T09:44:17.226Z,6.89
2023-02-13T09:45:17.231Z,6.97
2023-02-13T09:46:17.269Z,7.07
2023-02-13T09:47:17.195Z,7.14
2023-02-13T09:48:17.211Z,7.20
2023-02-13T09:49:17.176Z,7.23
2023-02-13T09:50:17.168Z,7.29
2023-02-13T09:51:17.147Z,7.36
2023-02-13T09:52:17.153Z,7.42
2023-02-13T09:53:17.142Z,7.58
2023-02-13T09:54:17.133Z,7.70
2023-02-13T09:55:17.116Z,7.77
2023-02-13T09:56:17.103Z,7.80
2023-02-13T09:57:17.082Z,7.91
2023-02-13T09:58:17.087Z,8.09
2023-02-13T09:59:17.062Z,8.37
2023-02-13T10:00:17.070Z,8.69
2023-02-13T10:01:17.070Z,8.97
2023-02-13T10:02:17.044Z,8.92
2023-02-13T10:03:17.025Z,9.10
2023-02-13T10:04:17.020Z,9.32
2023-02-13T10:05:17.074Z,9.40
2023-02-13T10:06:17.010Z,9.44
2023-02-13T10:07:17.011Z,9.55
2023-02-13T10:08:17.014Z,9.66
2023-02-13T10:09:16.965Z,9.64
2023-02-13T10:10:16.957Z,9.56
2023-02-13T10:11:16.950Z,9.74
2023-02-13T10:12:16.934Z,9.77
2023-02-13T10:13:16.921Z,9.86
2023-02-13T10:14:16.909Z,9.84
2023-02-13T10:15:16.906Z,9.87
2023-02-13T10:16:16.995Z,9.99
2023-02-13T10:17:16.876Z,9.94
2023-02-13T10:18:16.886Z,9.84
2023-02-13T10:19:16.859Z,9.99
2023-02-13T10:20:16.854Z,10.12
2023-02-13T10:21:16.839Z,10.02
2023-02-13T10:22:16.835Z,9.82
2023-02-13T10:23:16.823Z,9.94
2023-02-13T10:24:16.811Z,10.10
2023-02-13T10:25:16.795Z,9.98
2023-02-13T10:26:18.693Z,9.95
2023-02-13T10:27:16.781Z,10.04
2023-02-13T10:28:16.821Z,9.97
2023-02-13T10:29:16.754Z,9.84
2023-02-13T10:30:16.738Z,9.79
2023-02-13T10:31:16.887Z,9.59
2023-02-13T10:32:16.846Z,9.44
2023-02-13T10:33:16.722Z,9.46
2023-02-13T10:34:16.705Z,9.47
2023-02-13T10:35:16.692Z,9.55
2023-02-13T10:36:16.693Z,9.61
2023-02-13T10:37:16.742Z,9.55
2023-02-13T10:38:16.670Z,9.64
2023-02-13T10:39:16.671Z,9.65
2023-02-13T10:40:16.660Z,9.77
2023-02-13T10:41:16.633Z,9.83
2023-02-13T10:42:16.635Z,9.80
2023-02-13T10:43:16.614Z,9.72
2023-02-13T10:44:16.603Z,9.74
2023-02-13T10:45:16.615Z,9.95
2023-02-13T10:46:16.621Z,9.94
2023-02-13T10:47:16.595Z,9.73
2023-02-13T10:48:16.562Z,9.68
2023-02-13T10:49:16.540Z,9.72
2023-02-13T10:50:16.548Z,9.86
2023-02-13T10:51:16.526Z,9.97
2023-02-13T10:52:16.606Z,10.01
2023-02-13T10:53:16.511Z,10.23
2023-02-13T10:54:16.501Z,10.42
2023-02-13T10:55:16.487Z,10.61
2023-02-13T10:56:16.475Z,10.54
2023-02-13T10:57:16.491Z,10.59
2023-02-13T10:58:16.456Z,10.68
2023-02-13T10:59:16.437Z,10.81
2023-02-13T11:00:16.434Z,10.96
2023-02-13T11:01:16.435Z,10.96
2023-02-13T11:02:16.406Z,10.79
2023-02-13T11:03:16.405Z,10.63
2023-02-13T11:04:16.466Z,10.48
2023-02-13T11:05:16.381Z,10.60
2023-02-13T11:06:16.368Z,10.78
2023-02-13T11:07:16.359Z,10.81
2023-02-13T11:08:16.345Z,10.96
2023-02-13T11:09:16.333Z,10.84
2023-02-13T11:10:16.323Z,10.97
2023-02-13T11:11:16.346Z,10.99
2023-02-13T11:12:16.298Z,11.08
2023-02-13T11:13:16.310Z,11.04
2023-02-13T11:14:16.280Z,11.00
2023-02-13T11:15:16.272Z,11.04
2023-02-13T11:16:16.328Z,11.00
2023-02-13T11:17:16.248Z,10.75
2023-02-13T11:18:18.331Z,10.90
2023-02-13T11:19:16.226Z,11.11
2023-02-13T11:20:16.243Z,11.33
2023-02-13T11:21:16.209Z,11.51
2023-02-13T11:22:16.189Z,11.73
2023-02-13T11:23:16.193Z,11.78
2023-02-13T11:24:16.190Z,11.90
2023-02-13T11:25:16.167Z,12.02
2023-02-13T11:26:16.152Z,12.02
2023-02-13T11:27:16.149Z,11.80
2023-02-13T11:28:16.235Z,11.68
2023-02-13T11:29:16.132Z,11.68
2023-02-13T11:30:16.219Z,11.81
2023-02-13T11:31:16.200Z,12.06
2023-02-13T11:32:16.233Z,12.31
2023-02-13T11:33:16.106Z,12.40
2023-02-13T11:34:16.071Z,12.15
2023-02-13T11:35:16.063Z,12.25
2023-02-13T11:36:16.048Z,12.42
2023-02-13T11:37:16.051Z,12.36
2023-02-13T11:38:16.038Z,12.55
2023-02-13T11:39:16.023Z,12.80
2023-02-13T11:40:16.062Z,12.87
2023-02-13T11:41:16.011Z,12.64
2023-02-13T11:42:15.985Z,12.40
2023-02-13T11:43:16.354Z,12.32
2023-02-13T11:44:15.964Z,12.10
2023-02-13T11:45:15.983Z,12.22
2023-02-13T11:46:17.239Z,12.50
2023-02-13T11:47:15.937Z,12.65
2023-02-13T11:48:16.234Z,12.78
2023-02-13T11:49:15.924Z,13.05
2023-02-13T11:50:15.904Z,13.33
2023-02-13T11:51:15.893Z,13.13
2023-02-13T11:52:15.882Z,12.91
2023-02-13T11:53:16.231Z,13.00
2023-02-13T11:54:15.860Z,13.11
2023-02-13T11:55:15.856Z,13.18
2023-02-13T11:56:15.851Z,13.30
2023-02-13T11:57:15.842Z,13.54
2023-02-13T11:58:16.754Z,13.53
2023-02-13T11:59:15.814Z,13.49
2023-02-13T12:00:15.807Z,13.60
2023-02-13T12:01:15.802Z,13.71
2023-02-13T12:02:15.856Z,13.86
2023-02-13T12:03:16.506Z,13.89
2023-02-13T12:04:15.752Z,13.86
2023-02-13T12:05:15.764Z,13.72
2023-02-13T12:06:15.742Z,13.72
2023-02-13T12:07:15.732Z,13.72
2023-02-13T12:08:15.738Z,13.75
2023-02-13T12:09:15.854Z,13.42
2023-02-13T12:10:15.701Z,13.35
2023-02-13T12:11:15.714Z,13.27
2023-02-13T12:12:15.688Z,13.41
2023-02-13T12:13:15.670Z,13.70
2023-02-13T12:14:15.667Z,13.87
2023-02-13T12:15:15.656Z,14.15
2023-02-13T12:16:15.670Z,14.25
2023-02-13T12:17:29.406Z,14.18
2023-02-13T12:18:15.621Z,14.03
2023-02-13T12:19:15.622Z,13.93
2023-02-13T12:20:15.700Z,14.10
2023-02-13T12:21:15.607Z,13.79
2023-02-13T12:22:15.566Z,13.59
2023-02-13T12:23:15.570Z,13.52
2023-02-13T12:24:15.555Z,13.74
2023-02-13T12:25:15.540Z,14.03
2023-02-13T12:26:15.536Z,14.15
2023-02-13T12:27:15.520Z,14.40
2023-02-13T12:28:15.561Z,14.53
2023-02-13T12:29:15.561Z,14.66
2023-02-13T12:30:15.494Z,14.47
2023-02-13T12:31:15.580Z,14.45
2023-02-13T12:32:15.474Z,14.26
2023-02-13T12:33:15.462Z,14.17
2023-02-13T12:34:15.454Z,13.93
2023-02-13T12:35:15.454Z,13.86
2023-02-13T12:36:15.421Z,14.14
2023-02-13T12:37:15.426Z,14.30
2023-02-13T12:38:15.396Z,14.25
2023-02-13T12:39:15.401Z,14.12
2023-02-13T12:40:15.389Z,14.23
2023-02-13T12:41:15.385Z,14.43
2023-02-13T12:42:15.373Z,14.53
2023-02-13T12:43:15.361Z,14.55
2023-02-13T12:44:15.340Z,14.36
2023-02-13T12:45:15.349Z,14.23
2023-02-13T12:46:15.363Z,14.08
2023-02-13T12:47:15.314Z,14.07
2023-02-13T12:48:15.298Z,14.11
2023-02-13T12:49:15.296Z,14.10
2023-02-13T12:50:15.274Z,14.35
2023-02-13T12:51:15.278Z,14.70
2023-02-13T12:52:15.254Z,15.03
2023-02-13T12:53:15.254Z,15.19
2023-02-13T12:54:15.245Z,15.37
2023-02-13T12:55:15.226Z,15.21
2023-02-13T12:56:15.219Z,15.18
2023-02-13T12:57:15.213Z,15.10
2023-02-13T12:58:15.194Z,14.68
2023-02-13T12:59:15.184Z,14.54
2023-02-13T13:00:15.170Z,14.48
2023-02-13T13:01:15.214Z,14.72
2023-02-13T13:02:15.185Z,14.94
2023-02-13T13:03:15.143Z,15.18
2023-02-13T13:04:15.147Z,15.46
2023-02-13T13:05:15.138Z,15.47
2023-02-13T13:06:15.119Z,15.39
2023-02-13T13:07:15.107Z,15.33
2023-02-13T13:08:15.113Z,15.15
2023-02-13T13:09:15.094Z,15.06
2023-02-13T13:10:15.079Z,15.22
2023-02-13T13:11:15.066Z,15.25
2023-02-13T13:12:15.056Z,15.37
2023-02-13T13:13:15.082Z,15.39
2023-02-13T13:14:15.083Z,15.55